Time;durP1;ratioP1;P1;durP2;ratioP2;P2;SDS_P1;SDS_P2;PMS_P1;PMS_P2;Temp;Humidity;BMP_temperature;BMP_pressure;BME280_temperature;BME280_humidity;BME280_pressure;Samples;Min_cycle;Max_cycle;Signal;HPM_P1;HPM_P2
2022/05/07 00:00:38;;;;;;;;;5.80;5.80;;;;;20.21;42.58;101892.56;2088019;28;47828;-57
2022/05/07 00:01:38;;;;;;;;;6.00;6.00;;;;;20.19;42.44;101895.31;2091315;28;45885;-57
2022/05/07 00:02:39;;;;;;;;;5.00;5.00;;;;;20.19;42.66;101899.81;2095842;28;47947;-57
2022/05/07 00:03:39;;;;;;;;;7.00;7.00;;;;;20.16;42.59;101889.19;2094162;28;47878;-57
2022/05/07 00:04:40;;;;;;;;;6.67;6.67;;;;;20.14;42.41;101891.94;2095822;28;47060;-56
2022/05/07 00:05:40;;;;;;;;;4.67;4.33;;;;;20.14;42.29;101894.63;2097137;28;47784;-55
2022/05/07 00:06:40;;;;;;;;;6.00;5.50;;;;;20.13;42.66;101892.88;2092758;28;47857;-56
2022/05/07 00:07:41;;;;;;;;;4.33;3.67;;;;;20.12;42.44;101888.44;2095905;28;47492;-56
2022/05/07 00:08:41;;;;;;;;;4.67;4.67;;;;;20.13;42.76;101894.72;2090861;28;47995;-56
2022/05/07 00:09:42;;;;;;;;;6.33;6.33;;;;;20.13;42.77;101892.88;2092108;28;46950;-57
2022/05/07 00:10:43;;;;;;;;;6.00;5.00;;;;;20.13;42.66;101897.41;2089646;28;47757;-57
2022/05/07 00:11:43;;;;;;;;;8.00;8.00;;;;;20.12;43.05;101899.22;2089584;28;47712;-57
2022/05/07 00:12:44;;;;;;;;;8.00;5.50;;;;;20.11;43.05;101889.38;2093770;28;47917;-54
2022/05/07 00:13:45;;;;;;;;;5.00;5.00;;;;;20.12;42.65;101893.84;2092359;28;47690;-59
2022/05/07 00:14:46;;;;;;;;;5.00;5.00;;;;;20.12;43.24;101893.84;2089117;28;47946;-58
2022/05/07 00:18:24;;;;;;;;;9.00;8.00;;;;;20.11;43.00;101881.31;2092630;28;47746;-57
2022/05/07 00:19:24;;;;;;;;;5.00;5.00;;;;;20.10;42.94;101892.16;2091873;28;47814;-57
2022/05/07 00:20:25;;;;;;;;;4.67;4.67;;;;;20.09;43.17;101885.88;2089038;28;47499;-58
2022/05/07 00:21:26;;;;;;;;;6.50;6.00;;;;;20.06;42.93;101883.28;2090445;28;47445;-56
2022/05/07 00:22:26;;;;;;;;;6.40;6.40;;;;;20.05;43.44;101878.84;2094363;28;48077;-57
2022/05/07 00:23:27;;;;;;;;;7.00;7.00;;;;;20.04;43.09;101882.50;2093159;28;47776;-57
2022/05/07 00:24:27;;;;;;;;;8.25;6.75;;;;;20.03;43.34;101883.44;2089669;28;47268;-56
2022/05/07 00:25:28;;;;;;;;;7.33;7.00;;;;;20.05;43.40;101880.66;2094510;28;47260;-57
2022/05/07 00:26:29;;;;;;;;;6.60;6.60;;;;;20.04;43.31;101878.91;2088374;28;47181;-57
2022/05/07 00:27:29;;;;;;;;;9.50;8.25;;;;;20.03;42.96;101880.75;2084725;28;47972;-57
2022/05/07 00:28:31;;;;;;;;;10.50;7.00;;;;;19.99;43.35;101885.41;2102933;28;47571;-57
2022/05/07 00:29:31;;;;;;;;;8.80;8.60;;;;;19.98;43.46;101880.06;2096144;28;48021;-57
2022/05/07 00:30:32;;;;;;;;;9.00;7.75;;;;;19.95;43.30;101881.09;2088598;28;46255;-55
2022/05/07 00:31:32;;;;;;;;;6.50;6.50;;;;;19.95;43.82;101881.09;2087889;28;48343;-57
2022/05/07 00:32:33;;;;;;;;;9.00;8.00;;;;;19.93;43.23;101872.16;2088269;28;47654;-58
2022/05/07 00:33:34;;;;;;;;;8.20;8.20;;;;;19.93;43.40;101873.97;2087972;28;47862;-58
2022/05/07 00:34:34;;;;;;;;;7.75;7.75;;;;;19.93;43.70;101877.56;2088272;28;47445;-58
2022/05/07 00:35:35;;;;;;;;;9.00;7.50;;;;;19.92;43.48;101877.63;2089767;28;47823;-57
2022/05/07 00:36:35;;;;;;;;;9.00;8.75;;;;;19.91;43.91;101873.19;2091288;28;47586;-58
2022/05/07 00:37:39;;;;;;;;;8.25;7.00;;;;;19.89;43.69;101870.56;2090423;28;48303;-58
2022/05/07 00:38:39;;;;;;;;;8.40;8.40;;;;;19.87;43.59;101875.13;2080051;28;47810;-57
2022/05/07 00:39:40;;;;;;;;;11.00;9.00;;;;;19.85;43.73;101870.75;2090735;28;48048;-58
2022/05/07 00:40:40;;;;;;;;;10.50;10.00;;;;;19.84;44.30;101863.63;2084726;28;46435;-58
2022/05/07 00:41:40;;;;;;;;;7.50;7.00;;;;;19.82;44.01;101869.06;2089673;28;47260;-58
2022/05/07 00:42:41;;;;;;;;;10.25;10.25;;;;;19.82;43.71;101873.56;2090542;28;48260;-58
2022/05/07 00:43:41;;;;;;;;;8.50;8.50;;;;;19.81;44.25;101861.91;2088156;28;47576;-58
2022/05/07 00:44:42;;;;;;;;;12.00;10.25;;;;;19.82;44.01;101870.84;2090496;28;47758;-58
2022/05/07 00:45:45;;;;;;;;;10.00;8.25;;;;;19.82;43.97;101865.47;2090894;28;47221;-58
2022/05/07 00:46:46;;;;;;;;;8.25;8.25;;;;;19.83;44.27;101872.63;2088210;28;47654;-57
2022/05/07 00:47:47;;;;;;;;;9.75;7.25;;;;;19.81;43.94;101867.28;2088185;28;47646;-57
2022/05/07 00:48:47;;;;;;;;;8.25;7.00;;;;;19.81;44.44;101871.81;2088289;28;47883;-58
2022/05/07 00:49:50;;;;;;;;;6.00;6.00;;;;;19.81;44.15;101869.97;2088188;28;46494;-57
2022/05/07 00:52:09;;;;;;;;;9.75;9.75;;;;;19.83;44.19;101861.88;2090714;28;48099;-58
2022/05/07 00:53:10;;;;;;;;;7.00;6.33;;;;;19.83;44.15;101862.75;2088218;28;47541;-57
2022/05/07 00:54:10;;;;;;;;;7.75;7.75;;;;;19.85;44.16;101868.06;2090757;28;47987;-57
2022/05/07 00:55:12;;;;;;;;;9.00;9.00;;;;;19.85;44.17;101854.59;2088192;28;45559;-58
2022/05/07 00:56:12;;;;;;;;;8.60;8.60;;;;;19.84;44.21;101852.84;2088013;28;47886;-56
2022/05/07 00:57:14;;;;;;;;;9.25;8.75;;;;;19.85;44.24;101849.22;2089815;28;47127;-58
2022/05/07 00:58:16;;;;;;;;;8.00;8.00;;;;;19.85;44.23;101863.56;2087851;28;46995;-58
2022/05/07 00:59:17;;;;;;;;;11.60;9.80;;;;;19.84;44.43;101856.41;2089641;28;47333;-57
2022/05/07 01:00:17;;;;;;;;;8.60;8.00;;;;;19.83;44.12;101862.75;2089830;28;47904;-58
2022/05/07 01:01:18;;;;;;;;;6.33;6.33;;;;;19.81;44.17;101861.03;2080492;28;47625;-58
2022/05/07 01:02:18;;;;;;;;;10.00;10.00;;;;;19.77;44.06;101856.72;2088430;28;47686;-58
2022/05/07 01:03:19;;;;;;;;;8.75;8.75;;;;;19.73;44.29;101860.50;2088013;28;47598;-57
2022/05/07 01:04:19;;;;;;;;;10.25;9.25;;;;;19.70;44.21;101856.13;2089017;28;47420;-57
2022/05/07 01:05:19;;;;;;;;;9.75;9.75;;;;;19.69;44.64;101857.03;2092688;28;47989;-58
2022/05/07 01:06:20;;;;;;;;;10.00;8.33;;;;;19.68;44.55;101860.66;2088259;28;47785;-57
2022/05/07 01:07:21;;;;;;;;;9.80;8.00;;;;;19.66;44.28;101867.94;2090322;28;47942;-56
2022/05/07 01:08:22;;;;;;;;;10.33;9.00;;;;;19.65;44.69;101866.19;2088979;28;47864;-58
2022/05/07 01:09:22;;;;;;;;;8.60;8.60;;;;;19.63;44.43;101852.78;2079944;28;47905;-57
2022/05/07 01:10:23;;;;;;;;;8.25;8.25;;;;;19.62;44.70;101867.19;2087879;28;47297;-58
2022/05/07 01:11:24;;;;;;;;;7.80;7.80;;;;;19.60;44.70;101866.38;2087827;28;48537;-59
2022/05/07 01:12:25;;;;;;;;;6.60;6.60;;;;;19.59;44.87;101861.94;2087874;28;47504;-57
2022/05/07 01:13:26;;;;;;;;;5.50;5.25;;;;;19.57;44.79;101861.13;2087799;28;47541;-56
2022/05/07 01:14:27;;;;;;;;;11.00;11.00;;;;;19.56;44.52;101859.34;2088150;28;47606;-58
2022/05/07 01:15:27;;;;;;;;;8.75;8.75;;;;;19.57;45.09;101860.25;2087627;28;47541;-58
2022/05/07 01:16:27;;;;;;;;;7.25;7.25;;;;;19.58;44.84;101859.31;2087783;28;47498;-58
2022/05/07 01:17:32;;;;;;;;;9.25;9.25;;;;;19.57;44.87;101863.81;2087875;28;47620;-57
2022/05/07 01:18:33;;;;;;;;;5.80;5.80;;;;;19.57;44.99;101858.44;2079069;28;47391;-58
2022/05/07 01:19:33;;;;;;;;;9.50;9.25;;;;;19.57;44.67;101858.44;2086354;28;47864;-58
2022/05/07 01:20:33;;;;;;;;;8.75;8.75;;;;;19.59;45.11;101861.94;2095380;28;48040;-57
2022/05/07 01:21:34;;;;;;;;;8.75;8.75;;;;;19.60;44.72;101860.13;2088139;28;47479;-58
2022/05/07 01:22:35;;;;;;;;;9.25;8.75;;;;;19.61;44.78;101859.19;2088234;28;47650;-57
2022/05/07 01:23:36;;;;;;;;;9.60;8.80;;;;;19.61;44.96;101861.88;2087907;28;47328;-58
2022/05/07 01:24:37;;;;;;;;;9.40;9.20;;;;;19.62;44.58;101861.81;2087746;28;47975;-58
2022/05/07 01:25:37;;;;;;;;;8.00;7.00;;;;;19.63;45.07;101858.16;2088148;28;47868;-58
2022/05/07 01:26:39;;;;;;;;;10.25;10.25;;;;;19.63;44.75;101854.59;2087840;28;47799;-58
2022/05/07 01:27:40;;;;;;;;;9.20;8.60;;;;;19.64;45.09;101861.75;2076579;28;47323;-56
2022/05/07 01:28:40;;;;;;;;;8.00;7.00;;;;;19.65;44.96;101858.09;2071106;28;45933;-58
2022/05/07 01:29:41;;;;;;;;;10.25;8.75;;;;;19.65;45.14;101858.97;2085399;28;47501;-57
2022/05/07 01:30:42;;;;;;;;;11.75;11.25;;;;;19.65;45.41;101864.38;2087950;28;47627;-58
2022/05/07 01:31:42;;;;;;;;;10.00;7.75;;;;;19.63;44.83;101850.09;2088312;28;48061;-58
2022/05/07 01:32:42;;;;;;;;;10.00;8.50;;;;;19.62;44.87;101858.25;2087846;28;46982;-58
2022/05/07 01:33:43;;;;;;;;;8.00;7.00;;;;;19.59;45.17;101856.56;2087997;28;47969;-58
2022/05/07 01:34:43;;;;;;;;;9.75;8.00;;;;;19.58;45.33;101856.63;2088062;28;47165;-58
2022/05/07 01:35:44;;;;;;;;;12.25;10.50;;;;;19.54;45.24;101849.56;2087973;28;47888;-58
2022/05/07 01:36:45;;;;;;;;;8.50;8.50;;;;;19.52;45.37;101855.00;2088008;28;47679;-58
2022/05/07 01:37:45;;;;;;;;;11.00;11.00;;;;;19.49;45.13;101847.06;2087952;28;47834;-58
2022/05/07 01:38:46;;;;;;;;;9.00;8.00;;;;;19.47;45.10;101857.03;2087498;28;47872;-57
2022/05/07 01:39:46;;;;;;;;;11.50;10.50;;;;;19.43;45.43;101855.38;2087887;28;47400;-58
2022/05/07 01:40:47;;;;;;;;;9.00;9.00;;;;;19.39;45.42;101856.44;2083934;28;47489;-58
2022/05/07 01:41:47;;;;;;;;;8.00;6.75;;;;;19.35;45.20;101860.22;2080568;28;47281;-58
2022/05/07 01:42:47;;;;;;;;;8.00;7.00;;;;;19.31;45.43;101854.06;2087948;28;47147;-58
2022/05/07 01:43:48;;;;;;;;;8.00;8.00;;;;;19.29;45.59;101857.75;2086218;28;47799;-58
2022/05/07 01:44:48;;;;;;;;;9.50;9.50;;;;;19.27;45.56;101851.56;2087319;28;47973;-57
2022/05/07 01:45:49;;;;;;;;;8.75;8.75;;;;;19.26;45.23;101857.88;2088026;28;47151;-58
2022/05/07 01:48:11;;;;;;;;;11.60;11.60;;;;;19.23;45.58;101855.31;2080057;28;47536;-57
2022/05/07 01:49:12;;;;;;;;;11.00;8.80;;;;;19.22;45.55;101851.75;2087919;28;48461;-58
2022/05/07 01:50:12;;;;;;;;;11.00;9.25;;;;;19.20;45.91;101848.25;2087514;28;47661;-58
2022/05/07 01:51:12;;;;;;;;;7.00;7.00;;;;;19.18;45.91;101850.09;2088159;28;47583;-57
2022/05/07 01:52:14;;;;;;;;;9.75;9.75;;;;;19.18;46.14;101847.41;2088545;28;48392;-57
2022/05/07 01:53:14;;;;;;;;;11.40;10.80;;;;;19.18;45.79;101857.28;2078185;28;47466;-58
2022/05/07 01:54:15;;;;;;;;;11.50;10.50;;;;;19.17;45.77;101852.84;2078508;28;47568;-57
2022/05/07 01:55:15;;;;;;;;;10.50;10.00;;;;;19.16;45.72;101851.97;2086931;28;47568;-58
2022/05/07 01:56:15;;;;;;;;;10.25;10.25;;;;;19.14;45.79;101845.78;2087148;28;47742;-58
2022/05/07 01:57:16;;;;;;;;;10.75;9.75;;;;;19.14;45.69;101850.28;2088422;28;47875;-57
2022/05/07 01:58:16;;;;;;;;;10.75;10.00;;;;;19.13;45.77;101848.53;2087702;28;47408;-57
2022/05/07 01:59:17;;;;;;;;;11.50;10.50;;;;;19.10;45.94;101849.53;2088120;28;47792;-55
2022/05/07 02:00:17;;;;;;;;;13.25;12.00;;;;;19.06;45.44;101846.09;2088439;28;47633;-57
2022/05/07 02:01:19;;;;;;;;;10.25;8.25;;;;;19.04;45.87;101847.06;2087248;28;47783;-56
2022/05/07 02:02:19;;;;;;;;;12.20;9.60;;;;;19.03;45.99;101846.19;2088220;28;47594;-57
2022/05/07 02:03:20;;;;;;;;;12.00;9.75;;;;;19.01;46.09;101850.75;2088440;28;48077;-57
2022/05/07 02:04:20;;;;;;;;;9.80;9.80;;;;;19.01;45.93;101847.19;2087678;28;47726;-56
2022/05/07 02:05:22;;;;;;;;;9.00;7.50;;;;;19.01;46.19;101848.06;2088505;28;48008;-56
2022/05/07 02:06:22;;;;;;;;;9.40;9.40;;;;;19.00;46.01;101840.94;2088399;28;47598;-56
2022/05/07 02:07:23;;;;;;;;;11.00;10.00;;;;;19.00;46.23;101843.63;2087923;28;47224;-56
2022/05/07 02:08:23;;;;;;;;;10.00;10.00;;;;;18.99;46.24;101847.25;2092477;28;47643;-56
2022/05/07 02:09:24;;;;;;;;;10.50;10.50;;;;;19.01;46.18;101845.38;2088117;28;47954;-56
2022/05/07 02:10:25;;;;;;;;;8.75;8.75;;;;;18.99;46.05;101841.88;2087414;28;47879;-58
2022/05/07 02:11:25;;;;;;;;;11.20;11.20;;;;;18.98;46.04;101844.63;2087339;28;47415;-57
2022/05/07 02:12:26;;;;;;;;;9.25;8.00;;;;;18.96;45.99;101843.81;2087275;28;46294;-58
2022/05/07 02:13:26;;;;;;;;;12.00;11.00;;;;;18.95;46.09;101850.13;2087441;28;47957;-57
2022/05/07 02:14:27;;;;;;;;;11.00;11.00;;;;;18.94;46.15;101851.06;2087857;28;47382;-57
2022/05/07 02:15:27;;;;;;;;;12.25;12.25;;;;;18.94;46.13;101846.56;2087363;28;46661;-57
2022/05/07 02:16:28;;;;;;;;;12.00;12.00;;;;;18.92;46.18;101853.78;2087058;28;47378;-58
2022/05/07 02:17:28;;;;;;;;;9.50;9.50;;;;;18.90;45.94;101852.97;2087451;28;47766;-58
2022/05/07 02:18:29;;;;;;;;;9.25;9.25;;;;;18.88;46.29;101848.59;2087355;28;47510;-57
2022/05/07 02:19:29;;;;;;;;;8.00;7.50;;;;;18.85;46.14;101843.34;2087085;28;47403;-57
2022/05/07 02:20:29;;;;;;;;;9.75;9.75;;;;;18.82;46.26;101847.03;2086253;28;47636;-56
2022/05/07 02:21:30;;;;;;;;;12.75;10.25;;;;;18.80;46.43;101848.88;2087241;28;48064;-57
2022/05/07 02:22:30;;;;;;;;;10.00;10.00;;;;;18.77;46.44;101854.38;2087831;28;47562;-58
2022/05/07 02:23:31;;;;;;;;;10.75;10.50;;;;;18.76;46.55;101847.25;2087257;28;47941;-57
2022/05/07 02:24:31;;;;;;;;;10.00;8.00;;;;;18.75;46.27;101846.38;2086996;28;47549;-58
2022/05/07 02:25:31;;;;;;;;;11.00;9.75;;;;;18.76;46.45;101847.25;2087578;28;47779;-57
2022/05/07 02:26:32;;;;;;;;;11.50;11.25;;;;;18.75;46.75;101835.63;2087208;28;47501;-58
2022/05/07 02:27:32;;;;;;;;;12.25;12.25;;;;;18.77;46.64;101832.88;2087870;28;45722;-56
2022/05/07 02:28:33;;;;;;;;;8.75;8.75;;;;;18.76;46.24;101839.19;2086985;28;47334;-58
2022/05/07 02:29:33;;;;;;;;;11.50;10.25;;;;;18.76;46.72;101837.38;2094105;28;47766;-56
2022/05/07 02:30:34;;;;;;;;;9.25;9.25;;;;;18.76;46.43;101844.56;2092959;28;47889;-58
2022/05/07 02:31:34;;;;;;;;;10.00;10.00;;;;;18.76;46.49;101847.25;2087829;28;47391;-58
2022/05/07 02:32:34;;;;;;;;;10.00;9.50;;;;;18.74;46.29;101849.13;2087966;28;48187;-57
2022/05/07 02:33:35;;;;;;;;;13.00;9.75;;;;;18.74;46.95;101838.38;2095373;28;47533;-56
2022/05/07 02:34:36;;;;;;;;;11.50;10.50;;;;;18.75;46.65;101845.50;2091553;28;47782;-58
2022/05/07 02:35:37;;;;;;;;;9.60;9.60;;;;;18.76;46.56;101847.25;2092070;28;48398;-57
2022/05/07 02:36:37;;;;;;;;;11.00;11.00;;;;;18.75;46.60;101846.38;2095448;28;47275;-58
2022/05/07 02:37:38;;;;;;;;;9.75;9.75;;;;;18.75;46.41;101848.19;2091195;28;48224;-57
2022/05/07 02:38:39;;;;;;;;;12.25;9.25;;;;;18.72;46.48;101843.81;2092126;28;47486;-58
2022/05/07 02:39:40;;;;;;;;;8.60;8.60;;;;;18.71;46.70;101850.13;2092490;28;47942;-56
2022/05/07 02:43:18;;;;;;;;;10.00;9.20;;;;;18.75;46.44;101841.00;2094727;28;48364;-59
2022/05/07 02:44:18;;;;;;;;;11.50;10.00;;;;;18.76;46.58;101840.06;2091147;28;47670;-56
2022/05/07 02:45:19;;;;;;;;;8.67;8.67;;;;;18.78;46.59;101842.69;2091810;28;47721;-57
2022/05/07 02:46:19;;;;;;;;;9.75;9.75;;;;;18.80;46.70;101838.13;2095465;28;48204;-57
2022/05/07 02:47:20;;;;;;;;;10.25;10.25;;;;;18.81;46.68;101843.47;2091984;28;47507;-58
2022/05/07 02:48:21;;;;;;;;;9.75;9.25;;;;;18.83;46.76;101843.41;2087176;28;47897;-58
2022/05/07 02:49:22;;;;;;;;;10.80;9.40;;;;;18.85;46.73;101846.03;2094097;28;47515;-57
2022/05/07 02:50:22;;;;;;;;;8.25;8.25;;;;;18.86;46.66;101845.97;2089884;28;47823;-58
2022/05/07 02:51:22;;;;;;;;;11.25;9.50;;;;;18.89;46.38;101847.66;2094776;28;47585;-57
2022/05/07 02:52:23;;;;;;;;;10.25;10.25;;;;;18.88;46.52;101838.72;2087486;28;47122;-57
2022/05/07 02:53:23;;;;;;;;;12.25;9.50;;;;;18.90;46.70;101844.91;2087375;28;47917;-58
2022/05/07 02:54:24;;;;;;;;;11.75;11.00;;;;;18.90;46.51;101838.66;2095509;28;47615;-58
2022/05/07 02:55:25;;;;;;;;;7.50;7.00;;;;;18.89;46.63;101839.59;2088551;28;47471;-57
2022/05/07 02:56:26;;;;;;;;;8.40;8.40;;;;;18.88;46.57;101845.91;2086283;28;47266;-57
2022/05/07 02:57:26;;;;;;;;;16.75;13.75;;;;;18.87;46.48;101842.34;2087695;28;47492;-57
2022/05/07 02:58:26;;;;;;;;;11.25;10.75;;;;;18.86;46.64;101843.28;2087192;28;47758;-58
2022/05/07 02:59:27;;;;;;;;;11.00;9.25;;;;;18.87;46.70;101850.41;2087122;28;47552;-58
2022/05/07 03:00:28;;;;;;;;;12.75;11.75;;;;;18.88;46.78;101848.59;2094536;28;47605;-56
2022/05/07 03:01:28;;;;;;;;;11.20;10.00;;;;;18.90;46.54;101846.72;2094373;28;47718;-57
2022/05/07 03:02:28;;;;;;;;;12.25;10.75;;;;;18.91;46.64;101843.09;2087135;28;47224;-58
2022/05/07 03:03:29;;;;;;;;;8.25;8.25;;;;;18.91;46.81;101840.41;2087291;28;48005;-58
2022/05/07 03:04:29;;;;;;;;;10.00;10.00;;;;;18.89;46.76;101840.47;2087212;28;47735;-58
2022/05/07 03:05:30;;;;;;;;;9.75;9.50;;;;;18.88;46.63;101844.09;2087241;28;47930;-61
2022/05/07 03:06:30;;;;;;;;;10.75;9.00;;;;;18.86;46.73;101837.91;2087344;28;47518;-59
2022/05/07 03:07:31;;;;;;;;;11.75;10.00;;;;;18.81;46.74;101838.09;2087512;28;48159;-59
2022/05/07 03:08:31;;;;;;;;;14.00;13.00;;;;;18.77;46.64;101836.44;2087311;28;46889;-58
2022/05/07 03:09:32;;;;;;;;;10.25;10.25;;;;;18.73;46.74;101842.00;2087165;28;47513;-59
2022/05/07 03:10:32;;;;;;;;;11.25;10.50;;;;;18.69;46.80;101837.69;2087283;28;48199;-59
2022/05/07 03:11:34;;;;;;;;;9.00;8.75;;;;;18.64;47.04;101832.47;2087395;28;46397;-59
2022/05/07 03:12:34;;;;;;;;;11.40;11.40;;;;;18.60;46.84;101836.16;2085940;28;47881;-59
2022/05/07 03:13:35;;;;;;;;;10.50;10.50;;;;;18.57;46.91;101835.41;2082753;28;47262;-59
2022/05/07 03:14:36;;;;;;;;;10.00;9.75;;;;;18.56;47.47;101834.53;2103550;27;47345;-57
2022/05/07 03:15:37;;;;;;;;;13.25;11.25;;;;;18.54;47.34;101837.25;2094698;28;48240;-58
2022/05/07 03:16:38;;;;;;;;;9.75;9.50;;;;;18.55;47.32;101840.84;2086439;28;48187;-58
2022/05/07 03:17:39;;;;;;;;;13.60;12.40;;;;;18.55;47.29;101838.16;2087399;28;47523;-59
2022/05/07 03:18:39;;;;;;;;;9.75;9.75;;;;;18.54;47.39;101842.63;2087124;28;47537;-58
2022/05/07 03:19:39;;;;;;;;;9.50;9.00;;;;;18.53;47.59;101840.00;2087361;28;46411;-58
2022/05/07 03:20:40;;;;;;;;;11.25;10.75;;;;;18.53;47.45;101840.00;2087672;28;47721;-57
2022/05/07 03:21:42;;;;;;;;;11.50;11.50;;;;;18.51;47.43;101840.06;2088032;28;47492;-58
2022/05/07 03:22:44;;;;;;;;;11.00;11.00;;;;;18.50;47.47;101835.63;2083243;28;47242;-57
2022/05/07 03:23:46;;;;;;;;;11.00;11.00;;;;;18.49;47.68;101831.19;2090052;28;47697;-58
2022/05/07 03:24:46;;;;;;;;;9.00;9.00;;;;;18.50;47.67;101824.00;2088666;28;48224;-58
2022/05/07 03:25:46;;;;;;;;;12.00;12.00;;;;;18.52;47.63;101832.88;2088763;28;47577;-59
2022/05/07 03:26:47;;;;;;;;;12.25;11.50;;;;;18.52;47.36;101823.00;2088202;28;47089;-58
2022/05/07 03:27:47;;;;;;;;;11.75;10.75;;;;;18.51;47.58;101829.31;2088656;28;48115;-58
2022/05/07 03:28:48;;;;;;;;;8.50;8.50;;;;;18.50;47.79;101834.75;2089024;28;47546;-58
2022/05/07 03:29:49;;;;;;;;;12.00;12.00;;;;;18.50;47.68;101829.38;2088510;28;47644;-58
2022/05/07 03:30:49;;;;;;;;;14.00;14.00;;;;;18.49;47.53;101830.31;2088423;28;47603;-58
2022/05/07 03:31:50;;;;;;;;;13.00;10.75;;;;;18.46;47.55;101834.00;2088433;28;47385;-58
2022/05/07 03:32:50;;;;;;;;;11.25;9.50;;;;;18.44;47.64;101838.56;2088359;28;47440;-59
2022/05/07 03:33:50;;;;;;;;;9.25;8.75;;;;;18.42;47.97;101835.03;2088859;28;47385;-58
2022/05/07 03:34:51;;;;;;;;;10.00;10.00;;;;;18.43;47.68;101839.50;2088265;28;47187;-58
2022/05/07 03:35:51;;;;;;;;;11.75;10.25;;;;;18.43;47.91;101838.63;2103940;27;47115;-58
2022/05/07 03:36:52;;;;;;;;;9.00;8.00;;;;;18.43;47.79;101839.50;2095980;28;48293;-58
2022/05/07 03:37:52;;;;;;;;;11.50;11.25;;;;;18.45;47.87;101842.13;2086834;28;47460;-57
2022/05/07 03:38:52;;;;;;;;;13.00;12.00;;;;;18.46;48.16;101835.81;2088435;28;47770;-57
2022/05/07 03:39:53;;;;;;;;;14.00;13.75;;;;;18.46;47.94;101831.31;2088258;28;47924;-58
2022/05/07 03:40:53;;;;;;;;;13.50;13.25;;;;;18.47;47.92;101838.44;2088672;28;47734;-56
2022/05/07 03:41:54;;;;;;;;;10.50;9.75;;;;;18.46;47.92;101836.69;2088067;28;48071;-57
2022/05/07 03:42:55;;;;;;;;;10.75;10.75;;;;;18.47;48.01;101829.50;2095303;28;47921;-56
2022/05/07 03:43:55;;;;;;;;;10.00;9.75;;;;;18.47;47.93;101830.38;2095767;28;47362;-57
2022/05/07 03:44:56;;;;;;;;;10.00;10.00;;;;;18.48;47.92;101834.81;2088632;28;47363;-59
2022/05/07 03:45:56;;;;;;;;;10.25;10.25;;;;;18.50;47.84;101834.75;2088513;28;47811;-58
2022/05/07 03:46:56;;;;;;;;;11.25;11.00;;;;;18.50;48.05;101827.56;2088840;28;47241;-57
2022/05/07 03:47:57;;;;;;;;;11.75;11.75;;;;;18.52;47.92;101820.31;2088181;28;47084;-57
2022/05/07 03:48:57;;;;;;;;;14.00;12.00;;;;;18.54;47.99;101822.94;2088594;28;47876;-58
2022/05/07 03:49:58;;;;;;;;;12.75;12.50;;;;;18.55;47.86;101827.41;2088366;28;48116;-58
2022/05/07 03:50:59;;;;;;;;;13.50;12.75;;;;;18.58;48.24;101821.03;2088949;28;47588;-58
2022/05/07 03:53:30;;;;;;;;;13.60;12.20;;;;;18.59;48.01;101830.84;2088462;28;47551;-58
2022/05/07 03:54:30;;;;;;;;;16.40;13.60;;;;;18.58;48.03;101839.84;2085874;28;48051;-58
2022/05/07 03:55:31;;;;;;;;;11.50;11.00;;;;;18.56;48.03;101833.66;2088428;28;47636;-58
2022/05/07 03:56:31;;;;;;;;;12.75;11.50;;;;;18.51;48.13;101834.69;2083392;28;47495;-58
2022/05/07 03:57:31;;;;;;;;;13.50;12.25;;;;;18.49;48.08;101830.31;2095261;28;47345;-56
2022/05/07 03:58:33;;;;;;;;;12.00;10.00;;;;;18.46;48.19;101823.25;2083861;28;47740;-58
2022/05/07 03:59:34;;;;;;;;;11.40;10.80;;;;;18.45;48.26;101829.56;2088518;28;47997;-57
2022/05/07 04:00:34;;;;;;;;;9.50;7.00;;;;;18.46;48.35;101825.06;2088192;28;47143;-58
2022/05/07 04:01:35;;;;;;;;;12.50;12.00;;;;;18.45;48.18;101826.00;2088766;28;47196;-57
2022/05/07 04:02:35;;;;;;;;;14.25;13.75;;;;;18.43;48.43;101818.00;2088352;28;47820;-59
2022/05/07 04:03:36;;;;;;;;;11.50;10.00;;;;;18.43;48.48;101825.19;2088314;28;47453;-57
2022/05/07 04:04:36;;;;;;;;;11.00;10.50;;;;;18.41;48.41;101825.19;2087359;28;48002;-58
2022/05/07 04:05:37;;;;;;;;;11.00;11.00;;;;;18.41;48.59;101821.63;2087461;28;47488;-58
2022/05/07 04:06:37;;;;;;;;;11.50;11.50;;;;;18.42;48.66;101816.22;2088109;28;47995;-57
2022/05/07 04:07:38;;;;;;;;;11.75;10.50;;;;;18.44;48.63;101829.63;2088500;28;47330;-56
2022/05/07 04:08:38;;;;;;;;;11.50;10.75;;;;;18.43;48.70;101825.19;2088418;28;47441;-57
2022/05/07 04:09:39;;;;;;;;;12.25;12.25;;;;;18.45;48.51;101829.56;2088610;28;48043;-55
2022/05/07 04:10:39;;;;;;;;;10.50;10.50;;;;;18.46;48.49;101825.94;2088334;28;48069;-55
2022/05/07 04:11:40;;;;;;;;;10.40;10.40;;;;;18.47;48.69;101827.69;2088688;28;48086;-56
2022/05/07 04:12:49;;;;;;;;;11.50;11.50;;;;;18.49;48.56;101822.25;2086954;28;47961;-57
2022/05/07 04:13:49;;;;;;;;;12.20;12.20;;;;;18.49;48.84;101833.88;2103995;27;47775;-55
2022/05/07 04:14:49;;;;;;;;;13.25;13.25;;;;;18.48;48.75;101826.75;2103848;28;47882;-54
2022/05/07 04:15:50;;;;;;;;;14.75;12.75;;;;;18.49;48.69;101831.19;2088554;28;47679;-54
2022/05/07 04:16:50;;;;;;;;;11.75;11.75;;;;;18.49;48.75;101831.19;2088148;28;48069;-54
2022/05/07 04:17:51;;;;;;;;;12.00;10.25;;;;;18.48;48.58;101818.69;2090141;28;47364;-56
2022/05/07 04:18:51;;;;;;;;;11.00;11.00;;;;;18.46;48.49;101817.88;2093751;28;47537;-57
2022/05/07 04:19:51;;;;;;;;;16.75;14.00;;;;;18.43;48.73;101820.69;2088103;28;47918;-57
2022/05/07 04:20:52;;;;;;;;;15.50;15.25;;;;;18.40;48.60;101825.25;2087695;28;46613;-57
2022/05/07 04:21:52;;;;;;;;;15.75;14.75;;;;;18.37;49.00;101820.88;2088046;28;47669;-57
2022/05/07 04:22:53;;;;;;;;;10.50;9.50;;;;;18.34;48.62;101818.31;2088290;28;47567;-57
2022/05/07 04:23:53;;;;;;;;;9.75;9.75;;;;;18.33;48.98;101829.13;2088669;28;47215;-58
2022/05/07 04:24:57;;;;;;;;;14.75;12.75;;;;;18.30;49.01;101821.19;2088086;28;48068;-57
2022/05/07 04:25:57;;;;;;;;;11.20;11.20;;;;;18.27;49.23;101819.44;2088374;28;48100;-57
2022/05/07 04:26:58;;;;;;;;;12.25;12.25;;;;;18.26;49.23;101820.38;2088544;28;48355;-56
2022/05/07 04:27:58;;;;;;;;;11.50;10.50;;;;;18.25;49.50;101815.94;2088692;28;47278;-56
2022/05/07 04:28:59;;;;;;;;;13.50;13.50;;;;;18.25;49.43;101821.31;2088392;28;47870;-57
2022/05/07 04:29:59;;;;;;;;;13.00;13.00;;;;;18.24;49.30;101823.13;2088814;28;47393;-58
2022/05/07 04:31:00;;;;;;;;;11.75;9.75;;;;;18.23;49.28;101818.69;2087858;28;47646;-56
2022/05/07 04:32:01;;;;;;;;;13.50;13.25;;;;;18.22;49.27;101816.06;2086528;28;47745;-57
2022/05/07 04:33:01;;;;;;;;;13.00;13.00;;;;;18.21;49.41;101814.31;2091560;28;47392;-56
2022/05/07 04:34:02;;;;;;;;;15.75;14.75;;;;;18.19;49.14;101819.75;2093419;28;47625;-56
2022/05/07 04:35:02;;;;;;;;;11.50;11.50;;;;;18.17;49.35;101829.69;2091185;28;47398;-57
2022/05/07 04:36:03;;;;;;;;;11.50;10.75;;;;;18.15;49.42;101833.31;2090490;28;47293;-57
2022/05/07 04:37:03;;;;;;;;;14.00;13.50;;;;;18.15;49.58;101836.00;2086445;28;47386;-58
2022/05/07 04:38:04;;;;;;;;;12.75;12.75;;;;;18.13;49.70;101830.69;2085889;28;48065;-57
2022/05/07 04:39:04;;;;;;;;;13.75;13.75;;;;;18.11;49.54;101837.94;2092246;28;47754;-56
2022/05/07 04:40:05;;;;;;;;;12.75;12.75;;;;;18.09;49.70;101831.75;2088229;28;47746;-56
2022/05/07 04:41:07;;;;;;;;;13.80;12.80;;;;;18.08;49.71;101830.00;2088279;28;47157;-57
2022/05/07 04:42:07;;;;;;;;;15.80;14.40;;;;;18.07;49.63;101833.63;2092770;28;47583;-57
2022/05/07 04:43:08;;;;;;;;;15.25;14.00;;;;;18.05;49.81;101839.97;2092269;28;47731;-58
2022/05/07 04:44:08;;;;;;;;;14.00;13.50;;;;;18.04;49.97;101836.41;2093572;28;47967;-57
2022/05/07 04:45:09;;;;;;;;;17.50;14.50;;;;;18.04;50.02;101838.19;2094918;28;47690;-58
2022/05/07 04:46:09;;;;;;;;;13.50;13.50;;;;;18.04;50.00;101833.72;2092394;28;47619;-58
2022/05/07 04:47:10;;;;;;;;;12.75;12.75;;;;;18.06;49.93;101829.19;2092160;28;47891;-58
2022/05/07 04:48:10;;;;;;;;;15.50;12.75;;;;;18.08;49.75;101831.81;2087755;28;46347;-57